sensor_id;sensor_type;location;lat;lon;timestamp;P1;durP1;ratioP1;P2;durP2;ratioP2
8550;SDS011;4313;42.000;21.380;2022-12-29T00:01:27;89.83;;;65.77;;
8550;SDS011;4313;42.000;21.380;2022-12-29T00:03:54;89.23;;;64.67;;
8550;SDS011;4313;42.000;21.380;2022-12-29T00:06:21;87.40;;;61.70;;
8550;SDS011;4313;42.000;21.380;2022-12-29T00:08:48;58.70;;;44.17;;
8550;SDS011;4313;42.000;21.380;2022-12-29T00:11:17;54.47;;;40.73;;
8550;SDS011;4313;42.000;21.380;2022-12-29T00:13:45;49.10;;;37.37;;
8550;SDS011;4313;42.000;21.380;2022-12-29T00:16:30;53.90;;;36.47;;
8550;SDS011;4313;42.000;21.380;2022-12-29T00:18:58;48.13;;;37.13;;
8550;SDS011;4313;42.000;21.380;2022-12-29T00:21:25;53.17;;;38.87;;
8550;SDS011;4313;42.000;21.380;2022-12-29T00:24:12;50.20;;;37.50;;
8550;SDS011;4313;42.000;21.380;2022-12-29T00:27:03;44.43;;;35.20;;
8550;SDS011;4313;42.000;21.380;2022-12-29T00:29:54;47.83;;;36.27;;
8550;SDS011;4313;42.000;21.380;2022-12-29T00:32:39;50.33;;;36.90;;
8550;SDS011;4313;42.000;21.380;2022-12-29T00:35:25;48.13;;;35.87;;
8550;SDS011;4313;42.000;21.380;2022-12-29T00:37:54;47.60;;;37.10;;
8550;SDS011;4313;42.000;21.380;2022-12-29T00:40:58;51.93;;;37.70;;
8550;SDS011;4313;42.000;21.380;2022-12-29T00:43:44;49.53;;;37.80;;
8550;SDS011;4313;42.000;21.380;2022-12-29T00:46:29;45.47;;;35.53;;
8550;SDS011;4313;42.000;21.380;2022-12-29T00:48:56;47.83;;;37.40;;
8550;SDS011;4313;42.000;21.380;2022-12-29T00:51:41;46.83;;;36.93;;
8550;SDS011;4313;42.000;21.380;2022-12-29T00:54:08;53.57;;;38.00;;
8550;SDS011;4313;42.000;21.380;2022-12-29T00:56:35;51.73;;;38.53;;
8550;SDS011;4313;42.000;21.380;2022-12-29T00:59:04;53.07;;;39.27;;
8550;SDS011;4313;42.000;21.380;2022-12-29T01:01:33;44.73;;;36.60;;
8550;SDS011;4313;42.000;21.380;2022-12-29T01:04:01;57.50;;;41.67;;
8550;SDS011;4313;42.000;21.380;2022-12-29T01:06:28;55.97;;;41.07;;
8550;SDS011;4313;42.000;21.380;2022-12-29T01:08:55;57.77;;;42.43;;
8550;SDS011;4313;42.000;21.380;2022-12-29T01:11:36;53.97;;;42.17;;
8550;SDS011;4313;42.000;21.380;2022-12-29T01:14:06;58.37;;;43.50;;
8550;SDS011;4313;42.000;21.380;2022-12-29T01:16:33;60.07;;;43.60;;
8550;SDS011;4313;42.000;21.380;2022-12-29T01:19:01;64.87;;;42.93;;
8550;SDS011;4313;42.000;21.380;2022-12-29T01:21:28;63.13;;;44.00;;
8550;SDS011;4313;42.000;21.380;2022-12-29T01:23:55;57.87;;;43.97;;
8550;SDS011;4313;42.000;21.380;2022-12-29T01:26:22;64.10;;;44.90;;
8550;SDS011;4313;42.000;21.380;2022-12-29T01:28:51;58.60;;;43.00;;
8550;SDS011;4313;42.000;21.380;2022-12-29T01:31:19;60.00;;;44.27;;
8550;SDS011;4313;42.000;21.380;2022-12-29T01:33:46;57.63;;;43.50;;
8550;SDS011;4313;42.000;21.380;2022-12-29T01:36:14;57.37;;;43.27;;
8550;SDS011;4313;42.000;21.380;2022-12-29T01:38:43;58.23;;;43.30;;
8550;SDS011;4313;42.000;21.380;2022-12-29T01:41:11;55.37;;;42.93;;
8550;SDS011;4313;42.000;21.380;2022-12-29T01:43:40;60.07;;;44.27;;
8550;SDS011;4313;42.000;21.380;2022-12-29T01:46:12;58.87;;;42.07;;
8550;SDS011;4313;42.000;21.380;2022-12-29T01:48:46;55.07;;;41.60;;
8550;SDS011;4313;42.000;21.380;2022-12-29T01:51:14;60.80;;;43.57;;
8550;SDS011;4313;42.000;21.380;2022-12-29T01:53:41;62.73;;;41.67;;
8550;SDS011;4313;42.000;21.380;2022-12-29T01:56:09;53.83;;;42.40;;
8550;SDS011;4313;42.000;21.380;2022-12-29T01:58:37;60.93;;;44.23;;
8550;SDS011;4313;42.000;21.380;2022-12-29T02:01:06;63.43;;;43.37;;
8550;SDS011;4313;42.000;21.380;2022-12-29T02:03:34;60.10;;;44.17;;
8550;SDS011;4313;42.000;21.380;2022-12-29T02:06:04;59.13;;;43.90;;
8550;SDS011;4313;42.000;21.380;2022-12-29T02:08:36;56.83;;;42.93;;
8550;SDS011;4313;42.000;21.380;2022-12-29T02:11:04;59.80;;;43.63;;
8550;SDS011;4313;42.000;21.380;2022-12-29T02:13:33;58.87;;;43.13;;
8550;SDS011;4313;42.000;21.380;2022-12-29T02:16:02;63.53;;;48.73;;
8550;SDS011;4313;42.000;21.380;2022-12-29T02:18:39;67.27;;;48.00;;
8550;SDS011;4313;42.000;21.380;2022-12-29T02:33:19;70.53;;;51.17;;
8550;SDS011;4313;42.000;21.380;2022-12-29T02:35:51;68.73;;;50.97;;
8550;SDS011;4313;42.000;21.380;2022-12-29T02:38:25;69.73;;;51.30;;
8550;SDS011;4313;42.000;21.380;2022-12-29T02:41:01;75.33;;;54.77;;
8550;SDS011;4313;42.000;21.380;2022-12-29T02:43:33;74.40;;;53.57;;
8550;SDS011;4313;42.000;21.380;2022-12-29T02:46:07;71.73;;;52.70;;
8550;SDS011;4313;42.000;21.380;2022-12-29T02:48:38;88.10;;;61.10;;
8550;SDS011;4313;42.000;21.380;2022-12-29T02:51:09;92.93;;;63.00;;
8550;SDS011;4313;42.000;21.380;2022-12-29T02:53:39;84.23;;;57.43;;
8550;SDS011;4313;42.000;21.380;2022-12-29T02:56:24;82.73;;;55.87;;
8550;SDS011;4313;42.000;21.380;2022-12-29T02:58:51;83.10;;;58.97;;
8550;SDS011;4313;42.000;21.380;2022-12-29T03:01:26;85.47;;;62.57;;
8550;SDS011;4313;42.000;21.380;2022-12-29T03:04:03;98.83;;;69.43;;
8550;SDS011;4313;42.000;21.380;2022-12-29T03:06:40;94.53;;;65.73;;
8550;SDS011;4313;42.000;21.380;2022-12-29T03:09:19;88.00;;;60.07;;
8550;SDS011;4313;42.000;21.380;2022-12-29T03:11:56;87.43;;;58.80;;
8550;SDS011;4313;42.000;21.380;2022-12-29T03:14:37;80.83;;;57.97;;
8550;SDS011;4313;42.000;21.380;2022-12-29T03:17:29;88.47;;;57.73;;
8550;SDS011;4313;42.000;21.380;2022-12-29T03:20:04;81.53;;;57.40;;
8550;SDS011;4313;42.000;21.380;2022-12-29T03:22:36;76.37;;;55.53;;
8550;SDS011;4313;42.000;21.380;2022-12-29T03:25:12;76.93;;;55.60;;
8550;SDS011;4313;42.000;21.380;2022-12-29T03:27:42;70.93;;;54.13;;
8550;SDS011;4313;42.000;21.380;2022-12-29T03:30:12;73.37;;;53.93;;
8550;SDS011;4313;42.000;21.380;2022-12-29T03:32:44;77.73;;;56.27;;
8550;SDS011;4313;42.000;21.380;2022-12-29T03:35:14;83.63;;;56.90;;
8550;SDS011;4313;42.000;21.380;2022-12-29T03:37:44;78.03;;;55.67;;
8550;SDS011;4313;42.000;21.380;2022-12-29T03:40:16;77.33;;;56.23;;
8550;SDS011;4313;42.000;21.380;2022-12-29T03:42:45;91.27;;;59.43;;
8550;SDS011;4313;42.000;21.380;2022-12-29T03:45:13;84.57;;;59.33;;
8550;SDS011;4313;42.000;21.380;2022-12-29T03:47:42;83.50;;;59.90;;
8550;SDS011;4313;42.000;21.380;2022-12-29T03:50:11;86.07;;;57.87;;
8550;SDS011;4313;42.000;21.380;2022-12-29T03:52:40;84.07;;;59.27;;
8550;SDS011;4313;42.000;21.380;2022-12-29T03:55:08;92.47;;;58.20;;
8550;SDS011;4313;42.000;21.380;2022-12-29T03:57:37;83.20;;;58.43;;
8550;SDS011;4313;42.000;21.380;2022-12-29T04:00:08;86.57;;;57.87;;
8550;SDS011;4313;42.000;21.380;2022-12-29T04:02:46;78.37;;;56.00;;
8550;SDS011;4313;42.000;21.380;2022-12-29T04:05:19;78.73;;;57.97;;
8550;SDS011;4313;42.000;21.380;2022-12-29T04:07:48;81.47;;;57.50;;
8550;SDS011;4313;42.000;21.380;2022-12-29T04:10:15;75.17;;;53.97;;
8550;SDS011;4313;42.000;21.380;2022-12-29T04:12:44;72.83;;;52.53;;
8550;SDS011;4313;42.000;21.380;2022-12-29T04:15:12;71.57;;;51.30;;
8550;SDS011;4313;42.000;21.380;2022-12-29T04:17:40;73.97;;;52.03;;
8550;SDS011;4313;42.000;21.380;2022-12-29T04:20:09;75.63;;;51.00;;
8550;SDS011;4313;42.000;21.380;2022-12-29T04:22:59;68.80;;;49.50;;
8550;SDS011;4313;42.000;21.380;2022-12-29T04:25:27;67.70;;;50.23;;
8550;SDS011;4313;42.000;21.380;2022-12-29T04:27:54;73.03;;;48.83;;
8550;SDS011;4313;42.000;21.380;2022-12-29T04:30:44;65.40;;;48.80;;
8550;SDS011;4313;42.000;21.380;2022-12-29T04:33:35;67.57;;;47.50;;
8550;SDS011;4313;42.000;21.380;2022-12-29T04:36:04;71.40;;;49.13;;
8550;SDS011;4313;42.000;21.380;2022-12-29T04:38:32;76.63;;;48.43;;
8550;SDS011;4313;42.000;21.380;2022-12-29T04:41:02;68.07;;;48.50;;
8550;SDS011;4313;42.000;21.380;2022-12-29T04:43:29;65.40;;;45.87;;
8550;SDS011;4313;42.000;21.380;2022-12-29T04:46:15;66.27;;;45.70;;
8550;SDS011;4313;42.000;21.380;2022-12-29T04:49:05;62.73;;;42.20;;
8550;SDS011;4313;42.000;21.380;2022-12-29T04:51:54;59.37;;;39.67;;
8550;SDS011;4313;42.000;21.380;2022-12-29T04:54:22;55.87;;;37.37;;
8550;SDS011;4313;42.000;21.380;2022-12-29T04:57:07;52.20;;;35.50;;
8550;SDS011;4313;42.000;21.380;2022-12-29T04:59:36;48.00;;;34.97;;
8550;SDS011;4313;42.000;21.380;2022-12-29T05:02:04;51.17;;;35.40;;
8550;SDS011;4313;42.000;21.380;2022-12-29T05:04:33;58.67;;;35.37;;
8550;SDS011;4313;42.000;21.380;2022-12-29T05:07:02;50.43;;;34.57;;
8550;SDS011;4313;42.000;21.380;2022-12-29T05:09:30;47.97;;;35.30;;
8550;SDS011;4313;42.000;21.380;2022-12-29T05:11:58;48.33;;;36.60;;
8550;SDS011;4313;42.000;21.380;2022-12-29T05:14:26;51.80;;;34.70;;
8550;SDS011;4313;42.000;21.380;2022-12-29T05:16:53;56.90;;;37.03;;
8550;SDS011;4313;42.000;21.380;2022-12-29T05:19:38;53.70;;;37.47;;
8550;SDS011;4313;42.000;21.380;2022-12-29T05:22:07;53.20;;;38.40;;
8550;SDS011;4313;42.000;21.380;2022-12-29T05:24:34;54.30;;;38.73;;
8550;SDS011;4313;42.000;21.380;2022-12-29T05:27:01;60.20;;;41.77;;
8550;SDS011;4313;42.000;21.380;2022-12-29T05:29:48;61.67;;;42.40;;
8550;SDS011;4313;42.000;21.380;2022-12-29T05:32:16;71.83;;;43.73;;
8550;SDS011;4313;42.000;21.380;2022-12-29T05:34:43;67.63;;;42.77;;
8550;SDS011;4313;42.000;21.380;2022-12-29T05:37:11;65.27;;;41.43;;
8550;SDS011;4313;42.000;21.380;2022-12-29T05:39:40;59.77;;;41.70;;
8550;SDS011;4313;42.000;21.380;2022-12-29T05:42:08;61.97;;;41.33;;
8550;SDS011;4313;42.000;21.380;2022-12-29T05:45:01;63.63;;;42.90;;
8550;SDS011;4313;42.000;21.380;2022-12-29T05:47:51;69.33;;;42.87;;
8550;SDS011;4313;42.000;21.380;2022-12-29T05:50:28;68.97;;;45.87;;
8550;SDS011;4313;42.000;21.380;2022-12-29T05:53:16;81.70;;;50.37;;
8550;SDS011;4313;42.000;21.380;2022-12-29T05:55:46;79.50;;;55.77;;
8550;SDS011;4313;42.000;21.380;2022-12-29T05:58:13;89.83;;;65.77;;
8550;SDS011;4313;42.000;21.380;2022-12-29T06:00:41;87.47;;;62.13;;
8550;SDS011;4313;42.000;21.380;2022-12-29T06:03:09;84.90;;;59.90;;
8550;SDS011;4313;42.000;21.380;2022-12-29T06:05:36;80.50;;;56.80;;
8550;SDS011;4313;42.000;21.380;2022-12-29T06:08:03;84.73;;;56.47;;
8550;SDS011;4313;42.000;21.380;2022-12-29T06:10:32;80.73;;;56.87;;
8550;SDS011;4313;42.000;21.380;2022-12-29T06:13:04;79.97;;;54.40;;
8550;SDS011;4313;42.000;21.380;2022-12-29T06:15:34;96.47;;;62.57;;
8550;SDS011;4313;42.000;21.380;2022-12-29T06:18:04;68.33;;;50.47;;
8550;SDS011;4313;42.000;21.380;2022-12-29T06:20:33;68.23;;;49.07;;
8550;SDS011;4313;42.000;21.380;2022-12-29T06:23:02;65.53;;;48.30;;
8550;SDS011;4313;42.000;21.380;2022-12-29T06:25:30;66.20;;;47.17;;
8550;SDS011;4313;42.000;21.380;2022-12-29T06:28:00;65.13;;;47.60;;
8550;SDS011;4313;42.000;21.380;2022-12-29T06:30:27;87.50;;;55.57;;
8550;SDS011;4313;42.000;21.380;2022-12-29T06:32:54;164.43;;;97.00;;
8550;SDS011;4313;42.000;21.380;2022-12-29T06:35:23;183.37;;;102.90;;
8550;SDS011;4313;42.000;21.380;2022-12-29T06:37:50;171.23;;;108.07;;
8550;SDS011;4313;42.000;21.380;2022-12-29T06:40:19;126.27;;;76.30;;
8550;SDS011;4313;42.000;21.380;2022-12-29T06:43:06;80.97;;;55.30;;
8550;SDS011;4313;42.000;21.380;2022-12-29T06:45:57;80.10;;;52.83;;
8550;SDS011;4313;42.000;21.380;2022-12-29T06:48:24;75.17;;;50.73;;
8550;SDS011;4313;42.000;21.380;2022-12-29T06:50:51;66.10;;;49.90;;
8550;SDS011;4313;42.000;21.380;2022-12-29T06:53:18;71.13;;;50.10;;
8550;SDS011;4313;42.000;21.380;2022-12-29T06:55:45;67.53;;;47.97;;
8550;SDS011;4313;42.000;21.380;2022-12-29T06:58:13;74.40;;;50.97;;
8550;SDS011;4313;42.000;21.380;2022-12-29T07:00:40;74.73;;;51.67;;
8550;SDS011;4313;42.000;21.380;2022-12-29T07:03:08;67.97;;;51.90;;
8550;SDS011;4313;42.000;21.380;2022-12-29T07:05:35;66.93;;;50.53;;
8550;SDS011;4313;42.000;21.380;2022-12-29T07:08:02;67.70;;;50.03;;
8550;SDS011;4313;42.000;21.380;2022-12-29T07:10:29;65.37;;;47.70;;
8550;SDS011;4313;42.000;21.380;2022-12-29T07:12:56;68.70;;;46.63;;
8550;SDS011;4313;42.000;21.380;2022-12-29T07:15:27;68.67;;;48.00;;
8550;SDS011;4313;42.000;21.380;2022-12-29T07:17:54;65.30;;;49.03;;
8550;SDS011;4313;42.000;21.380;2022-12-29T07:20:21;69.20;;;48.30;;
8550;SDS011;4313;42.000;21.380;2022-12-29T07:22:48;69.77;;;50.80;;
8550;SDS011;4313;42.000;21.380;2022-12-29T07:25:15;75.43;;;54.97;;
8550;SDS011;4313;42.000;21.380;2022-12-29T07:27:56;66.23;;;49.70;;
8550;SDS011;4313;42.000;21.380;2022-12-29T07:30:23;76.63;;;50.70;;
8550;SDS011;4313;42.000;21.380;2022-12-29T07:32:52;66.07;;;49.83;;
8550;SDS011;4313;42.000;21.380;2022-12-29T07:35:19;65.03;;;48.23;;
8550;SDS011;4313;42.000;21.380;2022-12-29T07:37:46;72.03;;;49.57;;
8550;SDS011;4313;42.000;21.380;2022-12-29T07:40:13;61.60;;;46.67;;
8550;SDS011;4313;42.000;21.380;2022-12-29T07:42:40;58.70;;;45.27;;
8550;SDS011;4313;42.000;21.380;2022-12-29T07:45:08;64.00;;;43.57;;
8550;SDS011;4313;42.000;21.380;2022-12-29T07:47:55;55.57;;;38.37;;
8550;SDS011;4313;42.000;21.380;2022-12-29T07:50:22;52.97;;;37.43;;
8550;SDS011;4313;42.000;21.380;2022-12-29T07:52:49;57.13;;;37.70;;
8550;SDS011;4313;42.000;21.380;2022-12-29T07:55:16;52.80;;;36.27;;
8550;SDS011;4313;42.000;21.380;2022-12-29T07:57:44;53.47;;;36.27;;
8550;SDS011;4313;42.000;21.380;2022-12-29T08:00:11;52.07;;;35.13;;
8550;SDS011;4313;42.000;21.380;2022-12-29T08:02:39;50.70;;;34.10;;
8550;SDS011;4313;42.000;21.380;2022-12-29T08:05:09;43.97;;;34.67;;
8550;SDS011;4313;42.000;21.380;2022-12-29T08:07:36;43.80;;;34.25;;
8550;SDS011;4313;42.000;21.380;2022-12-29T08:10:03;51.17;;;35.40;;
8550;SDS011;4313;42.000;21.380;2022-12-29T08:12:31;44.87;;;34.87;;
8550;SDS011;4313;42.000;21.380;2022-12-29T08:14:58;49.87;;;37.20;;
8550;SDS011;4313;42.000;21.380;2022-12-29T08:17:25;47.30;;;36.07;;
8550;SDS011;4313;42.000;21.380;2022-12-29T08:19:52;51.30;;;36.73;;
8550;SDS011;4313;42.000;21.380;2022-12-29T08:22:21;52.97;;;38.33;;
8550;SDS011;4313;42.000;21.380;2022-12-29T08:24:48;54.37;;;38.87;;
8550;SDS011;4313;42.000;21.380;2022-12-29T08:27:16;52.30;;;40.10;;
8550;SDS011;4313;42.000;21.380;2022-12-29T08:29:43;52.60;;;39.87;;
8550;SDS011;4313;42.000;21.380;2022-12-29T08:32:10;54.57;;;39.20;;
8550;SDS011;4313;42.000;21.380;2022-12-29T08:34:38;50.77;;;38.97;;
8550;SDS011;4313;42.000;21.380;2022-12-29T08:37:05;52.30;;;39.97;;
8550;SDS011;4313;42.000;21.380;2022-12-29T08:39:34;53.70;;;38.57;;
8550;SDS011;4313;42.000;21.380;2022-12-29T08:42:01;50.43;;;38.10;;
8550;SDS011;4313;42.000;21.380;2022-12-29T08:44:28;50.67;;;38.70;;
8550;SDS011;4313;42.000;21.380;2022-12-29T08:46:55;59.30;;;41.07;;
8550;SDS011;4313;42.000;21.380;2022-12-29T08:49:23;59.40;;;41.63;;
8550;SDS011;4313;42.000;21.380;2022-12-29T08:51:50;53.70;;;42.63;;
8550;SDS011;4313;42.000;21.380;2022-12-29T08:54:19;54.73;;;44.77;;
8550;SDS011;4313;42.000;21.380;2022-12-29T08:56:48;59.93;;;47.07;;
8550;SDS011;4313;42.000;21.380;2022-12-29T08:59:16;59.57;;;41.77;;
8550;SDS011;4313;42.000;21.380;2022-12-29T09:01:46;62.10;;;43.70;;
8550;SDS011;4313;42.000;21.380;2022-12-29T09:04:13;60.30;;;43.93;;
8550;SDS011;4313;42.000;21.380;2022-12-29T09:06:40;62.80;;;43.10;;
8550;SDS011;4313;42.000;21.380;2022-12-29T09:09:07;60.80;;;43.50;;
8550;SDS011;4313;42.000;21.380;2022-12-29T09:11:35;62.43;;;46.07;;
8550;SDS011;4313;42.000;21.380;2022-12-29T09:14:04;58.37;;;42.60;;
8550;SDS011;4313;42.000;21.380;2022-12-29T09:16:31;53.67;;;38.60;;
8550;SDS011;4313;42.000;21.380;2022-12-29T09:18:58;57.97;;;43.60;;
8550;SDS011;4313;42.000;21.380;2022-12-29T09:21:26;57.73;;;40.90;;
8550;SDS011;4313;42.000;21.380;2022-12-29T09:23:53;56.72;;;41.35;;
8550;SDS011;4313;42.000;21.380;2022-12-29T09:26:21;52.67;;;38.17;;
8550;SDS011;4313;42.000;21.380;2022-12-29T09:28:50;52.30;;;37.20;;
8550;SDS011;4313;42.000;21.380;2022-12-29T09:31:19;49.90;;;39.17;;
8550;SDS011;4313;42.000;21.380;2022-12-29T09:33:47;53.60;;;40.60;;
8550;SDS011;4313;42.000;21.380;2022-12-29T09:36:14;58.35;;;42.47;;
8550;SDS011;4313;42.000;21.380;2022-12-29T09:38:41;64.35;;;48.08;;
8550;SDS011;4313;42.000;21.380;2022-12-29T09:41:11;52.60;;;41.38;;
8550;SDS011;4313;42.000;21.380;2022-12-29T09:43:53;55.25;;;41.33;;
8550;SDS011;4313;42.000;21.380;2022-12-29T09:46:28;60.33;;;44.00;;
8550;SDS011;4313;42.000;21.380;2022-12-29T09:48:59;68.40;;;47.13;;
8550;SDS011;4313;42.000;21.380;2022-12-29T09:51:33;65.47;;;45.97;;
8550;SDS011;4313;42.000;21.380;2022-12-29T09:54:03;70.03;;;54.47;;
8550;SDS011;4313;42.000;21.380;2022-12-29T09:56:34;57.08;;;40.05;;
8550;SDS011;4313;42.000;21.380;2022-12-29T09:59:02;51.95;;;36.50;;
8550;SDS011;4313;42.000;21.380;2022-12-29T10:01:36;64.50;;;41.70;;
8550;SDS011;4313;42.000;21.380;2022-12-29T10:04:07;63.63;;;41.33;;
8550;SDS011;4313;42.000;21.380;2022-12-29T10:06:37;61.05;;;43.95;;
8550;SDS011;4313;42.000;21.380;2022-12-29T10:09:09;82.38;;;53.15;;
8550;SDS011;4313;42.000;21.380;2022-12-29T10:11:46;90.10;;;60.15;;
8550;SDS011;4313;42.000;21.380;2022-12-29T10:14:27;91.90;;;53.92;;
8550;SDS011;4313;42.000;21.380;2022-12-29T10:17:04;92.00;;;53.15;;
8550;SDS011;4313;42.000;21.380;2022-12-29T10:19:42;127.93;;;54.85;;
8550;SDS011;4313;42.000;21.380;2022-12-29T10:22:40;129.73;;;62.85;;
8550;SDS011;4313;42.000;21.380;2022-12-29T10:25:15;141.25;;;64.95;;
8550;SDS011;4313;42.000;21.380;2022-12-29T10:27:44;153.80;;;62.80;;
8550;SDS011;4313;42.000;21.380;2022-12-29T10:30:14;132.20;;;61.85;;
8550;SDS011;4313;42.000;21.380;2022-12-29T10:32:44;123.28;;;59.15;;
8550;SDS011;4313;42.000;21.380;2022-12-29T10:35:14;112.40;;;62.08;;
8550;SDS011;4313;42.000;21.380;2022-12-29T10:37:45;106.93;;;60.03;;
8550;SDS011;4313;42.000;21.380;2022-12-29T10:40:18;113.38;;;61.70;;
8550;SDS011;4313;42.000;21.380;2022-12-29T10:42:50;106.40;;;63.42;;
8550;SDS011;4313;42.000;21.380;2022-12-29T10:45:19;101.60;;;60.83;;
8550;SDS011;4313;42.000;21.380;2022-12-29T10:47:53;110.80;;;60.25;;
8550;SDS011;4313;42.000;21.380;2022-12-29T10:50:24;102.45;;;64.10;;
8550;SDS011;4313;42.000;21.380;2022-12-29T10:52:52;104.75;;;63.78;;
8550;SDS011;4313;42.000;21.380;2022-12-29T10:55:21;86.00;;;53.63;;
8550;SDS011;4313;42.000;21.380;2022-12-29T10:57:49;88.25;;;56.17;;
8550;SDS011;4313;42.000;21.380;2022-12-29T11:00:17;90.80;;;52.95;;
8550;SDS011;4313;42.000;21.380;2022-12-29T11:02:50;92.28;;;51.70;;
8550;SDS011;4313;42.000;21.380;2022-12-29T11:05:30;89.95;;;50.40;;
8550;SDS011;4313;42.000;21.380;2022-12-29T11:08:01;74.30;;;48.05;;
8550;SDS011;4313;42.000;21.380;2022-12-29T11:10:30;92.40;;;53.42;;
8550;SDS011;4313;42.000;21.380;2022-12-29T11:13:03;84.43;;;46.92;;
8550;SDS011;4313;42.000;21.380;2022-12-29T11:15:38;73.45;;;44.28;;
8550;SDS011;4313;42.000;21.380;2022-12-29T11:18:08;65.47;;;40.95;;
8550;SDS011;4313;42.000;21.380;2022-12-29T11:20:44;71.25;;;42.30;;
8550;SDS011;4313;42.000;21.380;2022-12-29T11:23:21;60.55;;;40.70;;
8550;SDS011;4313;42.000;21.380;2022-12-29T11:28:41;61.10;;;39.35;;
8550;SDS011;4313;42.000;21.380;2022-12-29T11:31:10;63.17;;;38.22;;
8550;SDS011;4313;42.000;21.380;2022-12-29T11:33:38;53.45;;;35.45;;
8550;SDS011;4313;42.000;21.380;2022-12-29T11:36:06;49.58;;;33.10;;
8550;SDS011;4313;42.000;21.380;2022-12-29T11:38:35;53.13;;;34.58;;
8550;SDS011;4313;42.000;21.380;2022-12-29T11:41:03;48.45;;;34.83;;
8550;SDS011;4313;42.000;21.380;2022-12-29T11:43:31;54.30;;;32.92;;
8550;SDS011;4313;42.000;21.380;2022-12-29T11:46:00;46.13;;;30.05;;
8550;SDS011;4313;42.000;21.380;2022-12-29T11:48:29;47.08;;;31.02;;
8550;SDS011;4313;42.000;21.380;2022-12-29T11:51:00;69.28;;;49.75;;
8550;SDS011;4313;42.000;21.380;2022-12-29T11:53:28;42.83;;;30.27;;
8550;SDS011;4313;42.000;21.380;2022-12-29T11:55:59;45.30;;;30.35;;
8550;SDS011;4313;42.000;21.380;2022-12-29T11:58:28;40.03;;;29.60;;
8550;SDS011;4313;42.000;21.380;2022-12-29T12:00:57;45.92;;;32.50;;
8550;SDS011;4313;42.000;21.380;2022-12-29T12:03:29;45.78;;;29.23;;
8550;SDS011;4313;42.000;21.380;2022-12-29T12:06:00;43.63;;;30.83;;
8550;SDS011;4313;42.000;21.380;2022-12-29T12:08:31;48.20;;;31.73;;
8550;SDS011;4313;42.000;21.380;2022-12-29T12:11:03;42.45;;;30.50;;
8550;SDS011;4313;42.000;21.380;2022-12-29T12:13:33;38.88;;;29.25;;
8550;SDS011;4313;42.000;21.380;2022-12-29T12:16:03;39.10;;;28.15;;
8550;SDS011;4313;42.000;21.380;2022-12-29T12:18:43;37.58;;;28.35;;
8550;SDS011;4313;42.000;21.380;2022-12-29T12:21:15;37.88;;;27.25;;
8550;SDS011;4313;42.000;21.380;2022-12-29T12:23:53;34.60;;;26.75;;
8550;SDS011;4313;42.000;21.380;2022-12-29T12:26:28;39.35;;;27.13;;
8550;SDS011;4313;42.000;21.380;2022-12-29T12:28:59;36.00;;;26.48;;
8550;SDS011;4313;42.000;21.380;2022-12-29T12:31:34;34.45;;;26.10;;
8550;SDS011;4313;42.000;21.380;2022-12-29T12:34:10;32.92;;;27.45;;
8550;SDS011;4313;42.000;21.380;2022-12-29T12:36:52;35.65;;;26.90;;
8550;SDS011;4313;42.000;21.380;2022-12-29T12:39:31;29.95;;;23.60;;
8550;SDS011;4313;42.000;21.380;2022-12-29T12:42:06;33.70;;;23.92;;
8550;SDS011;4313;42.000;21.380;2022-12-29T12:44:46;27.83;;;22.83;;
8550;SDS011;4313;42.000;21.380;2022-12-29T12:47:22;32.00;;;24.23;;
8550;SDS011;4313;42.000;21.380;2022-12-29T12:50:06;29.67;;;22.83;;
8550;SDS011;4313;42.000;21.380;2022-12-29T12:52:58;31.42;;;24.40;;
8550;SDS011;4313;42.000;21.380;2022-12-29T12:55:40;25.85;;;20.00;;
8550;SDS011;4313;42.000;21.380;2022-12-29T12:58:15;27.23;;;20.00;;
8550;SDS011;4313;42.000;21.380;2022-12-29T13:00:49;30.15;;;21.15;;
8550;SDS011;4313;42.000;21.380;2022-12-29T13:03:26;25.13;;;19.27;;
8550;SDS011;4313;42.000;21.380;2022-12-29T13:06:15;23.10;;;19.00;;
8550;SDS011;4313;42.000;21.380;2022-12-29T13:08:52;25.17;;;19.00;;
8550;SDS011;4313;42.000;21.380;2022-12-29T13:11:28;25.13;;;18.63;;
8550;SDS011;4313;42.000;21.380;2022-12-29T13:14:08;20.48;;;17.13;;
8550;SDS011;4313;42.000;21.380;2022-12-29T13:16:41;23.05;;;17.13;;
8550;SDS011;4313;42.000;21.380;2022-12-29T13:19:16;25.80;;;19.27;;
8550;SDS011;4313;42.000;21.380;2022-12-29T13:21:50;26.38;;;19.63;;
8550;SDS011;4313;42.000;21.380;2022-12-29T13:24:26;27.75;;;19.35;;
8550;SDS011;4313;42.000;21.380;2022-12-29T13:26:59;24.27;;;19.60;;
8550;SDS011;4313;42.000;21.380;2022-12-29T13:29:30;27.42;;;21.00;;
8550;SDS011;4313;42.000;21.380;2022-12-29T13:32:09;28.33;;;22.50;;
8550;SDS011;4313;42.000;21.380;2022-12-29T13:34:51;31.58;;;25.60;;
8550;SDS011;4313;42.000;21.380;2022-12-29T13:37:24;46.80;;;29.45;;
8550;SDS011;4313;42.000;21.380;2022-12-29T13:39:56;25.88;;;19.83;;
8550;SDS011;4313;42.000;21.380;2022-12-29T13:42:25;25.60;;;18.90;;
8550;SDS011;4313;42.000;21.380;2022-12-29T13:44:54;28.60;;;19.85;;
8550;SDS011;4313;42.000;21.380;2022-12-29T13:47:25;26.58;;;20.42;;
8550;SDS011;4313;42.000;21.380;2022-12-29T13:49:55;31.40;;;23.20;;
8550;SDS011;4313;42.000;21.380;2022-12-29T13:52:25;28.73;;;22.90;;
8550;SDS011;4313;42.000;21.380;2022-12-29T13:54:58;30.20;;;22.05;;
8550;SDS011;4313;42.000;21.380;2022-12-29T13:57:32;26.08;;;20.25;;
8550;SDS011;4313;42.000;21.380;2022-12-29T14:00:06;22.23;;;18.00;;
8550;SDS011;4313;42.000;21.380;2022-12-29T14:02:42;22.65;;;16.77;;
8550;SDS011;4313;42.000;21.380;2022-12-29T14:05:27;22.60;;;18.10;;
8550;SDS011;4313;42.000;21.380;2022-12-29T14:07:59;24.90;;;19.42;;
8550;SDS011;4313;42.000;21.380;2022-12-29T14:10:30;23.40;;;18.15;;
8550;SDS011;4313;42.000;21.380;2022-12-29T14:13:02;22.02;;;18.75;;
8550;SDS011;4313;42.000;21.380;2022-12-29T14:15:31;20.77;;;16.23;;
8550;SDS011;4313;42.000;21.380;2022-12-29T14:18:03;21.15;;;17.48;;
8550;SDS011;4313;42.000;21.380;2022-12-29T14:20:36;29.75;;;23.23;;
8550;SDS011;4313;42.000;21.380;2022-12-29T14:23:14;18.48;;;13.73;;
8550;SDS011;4313;42.000;21.380;2022-12-29T14:25:52;14.40;;;11.30;;
8550;SDS011;4313;42.000;21.380;2022-12-29T14:28:22;14.20;;;10.82;;
8550;SDS011;4313;42.000;21.380;2022-12-29T14:30:52;15.95;;;11.70;;
8550;SDS011;4313;42.000;21.380;2022-12-29T14:33:21;15.00;;;11.52;;
8550;SDS011;4313;42.000;21.380;2022-12-29T14:35:49;16.10;;;11.85;;
8550;SDS011;4313;42.000;21.380;2022-12-29T14:38:21;14.50;;;11.48;;
8550;SDS011;4313;42.000;21.380;2022-12-29T14:40:50;13.32;;;11.93;;
8550;SDS011;4313;42.000;21.380;2022-12-29T14:43:23;112.17;;;53.80;;
8550;SDS011;4313;42.000;21.380;2022-12-29T14:45:55;31.87;;;17.90;;
8550;SDS011;4313;42.000;21.380;2022-12-29T14:48:28;306.17;;;135.67;;
8550;SDS011;4313;42.000;21.380;2022-12-29T14:50:57;37.40;;;23.80;;
8550;SDS011;4313;42.000;21.380;2022-12-29T14:53:42;25.73;;;18.27;;
8550;SDS011;4313;42.000;21.380;2022-12-29T14:56:12;146.83;;;88.83;;
8550;SDS011;4313;42.000;21.380;2022-12-29T14:58:43;87.20;;;51.27;;
8550;SDS011;4313;42.000;21.380;2022-12-29T15:01:17;73.10;;;47.33;;
8550;SDS011;4313;42.000;21.380;2022-12-29T15:03:47;22.90;;;17.70;;
8550;SDS011;4313;42.000;21.380;2022-12-29T15:06:16;46.00;;;30.40;;
8550;SDS011;4313;42.000;21.380;2022-12-29T15:08:49;31.90;;;23.13;;
8550;SDS011;4313;42.000;21.380;2022-12-29T15:11:20;35.23;;;24.63;;
8550;SDS011;4313;42.000;21.380;2022-12-29T15:13:48;28.57;;;22.23;;
8550;SDS011;4313;42.000;21.380;2022-12-29T15:16:22;32.00;;;23.10;;